Time;durP1;ratioP1;P1;durP2;ratioP2;P2;SDS_P1;SDS_P2;PMS_P1;PMS_P2;Temp;Humidity;BMP_temperature;BMP_pressure;BME280_temperature;BME280_humidity;BME280_pressure;Samples;Min_cycle;Max_cycle;Signal;HPM_P1;HPM_P2
2023/04/06 00:01:39;;;;;;;8.30;7.37;;;;;;;-0.27;100.00;96549.75;5014477;28;101886;-63
2023/04/06 00:04:28;;;;;;;9.73;6.57;;;;;;;-0.34;100.00;96555.84;5028640;28;105707;-63
2023/04/06 00:06:55;;;;;;;9.97;7.10;;;;;;;-0.33;100.00;96552.25;5027881;27;102481;-63
2023/04/06 00:09:23;;;;;;;8.60;7.70;;;;;;;-0.36;100.00;96547.41;5024159;28;101893;-63
2023/04/06 00:11:50;;;;;;;9.00;7.33;;;;;;;-0.55;100.00;96547.91;5009904;28;102479;-63
2023/04/06 00:15:10;;;;;;;9.00;7.40;;;;;;;-0.64;100.00;96549.00;5016071;28;102658;-63
2023/04/06 00:17:37;;;;;;;10.10;7.97;;;;;;;-0.56;100.00;96546.28;5031825;27;103075;-63
2023/04/06 00:20:06;;;;;;;8.63;7.63;;;;;;;-0.48;100.00;96546.22;5020541;28;105508;-63
2023/04/06 00:22:33;;;;;;;10.43;8.17;;;;;;;-0.47;100.00;96540.00;5011928;28;101790;-63
2023/04/06 00:25:06;;;;;;;11.63;8.63;;;;;;;-0.52;100.00;96550.19;5013234;28;102466;-63
2023/04/06 00:27:34;;;;;;;10.53;8.23;;;;;;;-0.75;100.00;96540.75;5022447;28;102542;-63
2023/04/06 00:30:01;;;;;;;11.43;7.80;;;;;;;-0.92;100.00;96549.72;5007452;28;101987;-63
2023/04/06 00:32:29;;;;;;;9.67;8.07;;;;;;;-0.90;100.00;96551.16;5012961;28;102559;-63
2023/04/06 00:35:28;;;;;;;13.00;9.33;;;;;;;-0.89;100.00;96552.00;5010992;28;103777;-63
2023/04/06 00:37:55;;;;;;;10.53;7.47;;;;;;;-1.00;100.00;96555.81;5016331;28;101900;-63
2023/04/06 00:40:24;;;;;;;12.40;8.30;;;;;;;-0.83;100.00;96549.47;5011042;28;106092;-63
2023/04/06 00:43:05;;;;;;;11.53;7.40;;;;;;;-0.83;100.00;96541.63;5011529;28;101866;-63
2023/04/06 00:45:33;;;;;;;10.27;7.23;;;;;;;-0.83;100.00;96538.25;5013058;28;102566;-63
2023/04/06 00:48:01;;;;;;;9.10;6.90;;;;;;;-0.89;100.00;96539.75;5012280;28;105497;-63
2023/04/06 00:50:29;;;;;;;10.10;7.53;;;;;;;-0.78;100.00;96541.13;5011475;28;101965;-63
2023/04/06 00:53:00;;;;;;;9.43;7.43;;;;;;;-0.78;100.00;96531.47;5011255;28;105687;-63
2023/04/06 00:55:30;;;;;;;10.17;7.23;;;;;;;-0.81;100.00;96531.84;5010923;28;105449;-63
2023/04/06 00:58:00;;;;;;;11.47;7.23;;;;;;;-0.83;100.00;96531.19;5016283;28;101758;-63
2023/04/06 01:00:28;;;;;;;7.97;7.17;;;;;;;-0.89;100.00;96537.13;5015850;28;102484;-63
2023/04/06 01:03:00;;;;;;;9.30;7.33;;;;;;;-0.99;100.00;96544.38;5012380;28;102159;-63
2023/04/06 01:05:40;;;;;;;9.93;8.10;;;;;;;-1.15;100.00;96543.72;5011333;28;105356;-63
2023/04/06 01:08:10;;;;;;;8.57;6.93;;;;;;;-1.31;100.00;96544.63;5023668;28;104072;-63
2023/04/06 01:10:38;;;;;;;9.97;7.43;;;;;;;-1.38;100.00;96548.13;5031300;28;101794;-63
2023/04/06 01:13:13;;;;;;;11.93;8.00;;;;;;;-1.36;100.00;96544.34;5031146;28;104891;-63
2023/04/06 01:16:01;;;;;;;8.20;7.03;;;;;;;-1.18;100.00;96537.03;5031536;28;103557;-62
2023/04/06 01:18:42;;;;;;;7.27;6.50;;;;;;;-1.11;100.00;96537.16;5013853;28;102097;-63
2023/04/06 01:21:19;;;;;;;9.33;7.23;;;;;;;-1.23;100.00;96541.97;5030852;28;105147;-63
2023/04/06 01:24:14;;;;;;;8.57;6.60;;;;;;;-1.31;100.00;96544.63;4985248;28;102021;-63
2023/04/06 01:26:57;;;;;;;9.50;6.63;;;;;;;-1.19;100.00;96540.66;5029530;28;102371;-63
2023/04/06 01:29:29;;;;;;;8.37;6.93;;;;;;;-1.12;100.00;96533.72;5030098;28;105018;-62
2023/04/06 01:31:56;;;;;;;7.37;6.00;;;;;;;-1.33;100.00;96535.34;5029428;28;102046;-63
2023/04/06 01:34:41;;;;;;;8.47;6.60;;;;;;;-1.37;100.00;96540.09;5030871;28;105288;-63
2023/04/06 01:37:08;;;;;;;9.10;6.77;;;;;;;-1.49;100.00;96540.69;5006255;28;105465;-63
2023/04/06 01:39:37;;;;;;;8.20;6.63;;;;;;;-1.26;100.00;96537.09;5030805;28;102008;-63
2023/04/06 01:42:07;;;;;;;12.83;6.90;;;;;;;-1.38;100.00;96535.88;5028791;28;104979;-63
2023/04/06 01:44:36;;;;;;;8.73;6.90;;;;;;;-1.43;100.00;96532.97;5033525;28;105012;-63
2023/04/06 01:47:12;;;;;;;8.33;6.80;;;;;;;-1.33;100.00;96536.16;5007193;28;105089;-63
2023/04/06 01:49:39;;;;;;;10.23;7.07;;;;;;;-1.29;100.00;96526.19;5023934;28;105857;-62
2023/04/06 01:52:06;;;;;;;9.00;7.80;;;;;;;-1.33;100.00;96530.94;5010580;28;101972;-63
2023/04/06 01:55:19;;;;;;;8.17;6.83;;;;;;;-1.28;100.00;96528.63;5014715;28;103886;-63
2023/04/06 01:58:20;;;;;;;8.10;6.97;;;;;;;-1.51;100.00;96530.44;4967625;28;102612;-63
2023/04/06 02:00:47;;;;;;;8.90;7.23;;;;;;;-1.52;100.00;96528.00;5007243;28;101866;-62
2023/04/06 02:03:23;;;;;;;7.73;6.37;;;;;;;-1.55;100.00;96531.75;5010120;28;105397;-63
2023/04/06 02:05:59;;;;;;;9.23;7.27;;;;;;;-1.54;100.00;96535.97;5009801;28;105256;-63
2023/04/06 02:08:34;;;;;;;9.20;6.27;;;;;;;-1.48;100.00;96532.66;5014712;28;102055;-63
2023/04/06 02:11:02;;;;;;;8.97;6.80;;;;;;;-1.63;100.00;96523.16;5023550;28;105400;-62
2023/04/06 02:13:36;;;;;;;8.83;6.50;;;;;;;-1.49;100.00;96535.47;5030265;28;101887;-63
2023/04/06 02:16:03;;;;;;;7.40;6.60;;;;;;;-1.71;100.00;96531.84;5029836;28;105312;-63
2023/04/06 02:18:31;;;;;;;8.93;7.33;;;;;;;-1.60;100.00;96534.06;5029323;28;103732;-63
2023/04/06 02:20:58;;;;;;;9.17;7.73;;;;;;;-1.77;100.00;96536.91;5016085;28;102013;-63
2023/04/06 02:23:26;;;;;;;9.63;7.30;;;;;;;-1.68;100.00;96528.06;5018515;28;105224;-62
2023/04/06 02:25:53;;;;;;;8.83;6.90;;;;;;;-1.75;100.00;96533.16;5030676;27;103049;-63
2023/04/06 02:28:20;;;;;;;8.10;6.97;;;;;;;-1.76;100.00;96531.53;5028192;28;102060;-63
2023/04/06 02:30:49;;;;;;;8.30;6.83;;;;;;;-1.87;100.00;96537.13;5014918;28;102390;-63
2023/04/06 02:33:25;;;;;;;10.00;6.57;;;;;;;-1.98;100.00;96534.09;5009878;28;101828;-63
2023/04/06 02:35:53;;;;;;;9.10;6.90;;;;;;;-1.92;100.00;96529.00;5010799;28;105349;-63
2023/04/06 02:38:20;;;;;;;8.33;6.70;;;;;;;-1.95;100.00;96533.75;5015535;28;102479;-63
2023/04/06 02:40:47;;;;;;;7.57;6.77;;;;;;;-1.95;100.00;96537.19;5018063;27;101934;-63
2023/04/06 02:43:23;;;;;;;9.57;7.30;;;;;;;-2.13;100.00;96539.19;5010098;28;104909;-63
2023/04/06 02:45:56;;;;;;;8.30;6.37;;;;;;;-2.15;100.00;96543.78;5016159;28;105278;-63
2023/04/06 02:48:25;;;;;;;8.47;6.90;;;;;;;-2.18;100.00;96533.66;5025721;27;102018;-63
2023/04/06 02:50:53;;;;;;;11.83;7.43;;;;;;;-2.21;100.00;96530.59;5009676;28;105169;-63
2023/04/06 02:53:34;;;;;;;7.20;6.17;;;;;;;-2.11;100.00;96539.84;5012337;28;105756;-63
2023/04/06 02:56:01;;;;;;;8.90;6.70;;;;;;;-2.07;100.00;96535.91;5009504;28;105091;-63
2023/04/06 02:58:38;;;;;;;10.07;7.30;;;;;;;-2.18;100.00;96525.84;5010102;28;104834;-63
2023/04/06 03:01:06;;;;;;;8.63;7.03;;;;;;;-2.15;100.00;96532.53;5022276;28;103332;-62
2023/04/06 03:03:59;;;;;;;9.13;7.20;;;;;;;-2.27;100.00;96526.06;5020373;28;104798;-63
2023/04/06 03:06:28;;;;;;;8.67;6.83;;;;;;;-2.32;100.00;96528.34;5010045;28;102783;-62
2023/04/06 03:09:00;;;;;;;9.77;7.23;;;;;;;-2.43;100.00;96531.31;5021430;28;101958;-63
2023/04/06 03:11:27;;;;;;;9.10;7.17;;;;;;;-2.39;100.00;96536.03;5029363;28;104589;-63
2023/04/06 03:14:00;;;;;;;7.80;6.83;;;;;;;-2.44;100.00;96530.53;5028611;28;105484;-63
2023/04/06 03:16:29;;;;;;;12.30;7.63;;;;;;;-2.45;100.00;96531.50;5032567;28;101805;-63
2023/04/06 03:18:57;;;;;;;13.37;7.63;;;;;;;-2.38;100.00;96529.03;5026920;28;104186;-63
2023/04/06 03:21:24;;;;;;;11.03;7.70;;;;;;;-2.34;100.00;96530.31;5028739;28;101897;-63
2023/04/06 03:24:06;;;;;;;9.33;7.63;;;;;;;-2.33;100.00;96530.16;5028869;28;104888;-63
2023/04/06 03:26:33;;;;;;;10.53;7.60;;;;;;;-2.30;100.00;96529.81;5028816;28;105867;-63
2023/04/06 03:29:05;;;;;;;11.23;8.33;;;;;;;-2.25;100.00;96526.72;5027375;28;101877;-63
2023/04/06 03:31:34;;;;;;;11.63;7.60;;;;;;;-2.16;100.00;96539.53;5029178;28;106647;-63
2023/04/06 03:34:39;;;;;;;10.03;8.00;;;;;;;-2.37;100.00;96533.25;5029684;27;102586;-63
2023/04/06 03:37:06;;;;;;;8.57;7.67;;;;;;;-2.33;100.00;96532.78;5032916;28;101852;-63
2023/04/06 03:39:33;;;;;;;10.33;8.03;;;;;;;-2.40;100.00;96534.41;5022835;27;103165;-63
2023/04/06 03:42:00;;;;;;;9.30;7.77;;;;;;;-2.41;100.00;96534.59;5027451;28;102026;-63
2023/04/06 03:44:41;;;;;;;9.53;7.20;;;;;;;-2.52;100.00;96540.16;5029078;28;104726;-63
2023/04/06 03:47:10;;;;;;;7.93;6.80;;;;;;;-2.40;100.00;96542.22;5027357;28;103888;-63
2023/04/06 03:49:37;;;;;;;9.83;7.73;;;;;;;-2.39;100.00;96550.84;5026983;28;102485;-63
2023/04/06 03:52:07;;;;;;;9.40;7.33;;;;;;;-2.53;100.00;96543.72;5031419;27;102674;-63
2023/04/06 03:54:40;;;;;;;14.77;8.00;;;;;;;-2.53;100.00;96549.75;5033028;27;102681;-63
2023/04/06 03:57:07;;;;;;;10.67;7.90;;;;;;;-2.43;100.00;96550.38;5024020;28;101942;-63
2023/04/06 03:59:34;;;;;;;9.27;7.13;;;;;;;-2.52;100.00;96550.56;5018993;28;105439;-63
2023/04/06 04:02:01;;;;;;;9.73;7.73;;;;;;;-2.62;100.00;96558.53;5024481;28;102017;-63
2023/04/06 04:04:32;;;;;;;9.27;7.37;;;;;;;-2.69;100.00;96562.78;5013411;28;101691;-63
2023/04/06 04:06:59;;;;;;;10.63;7.57;;;;;;;-2.67;100.00;96560.81;5011633;28;105445;-63
2023/04/06 04:09:26;;;;;;;8.07;6.93;;;;;;;-2.61;100.00;96561.97;5027598;28;101799;-63
2023/04/06 04:11:53;;;;;;;9.73;6.87;;;;;;;-2.58;100.00;96559.81;5030736;28;105405;-62
2023/04/06 04:14:33;;;;;;;8.97;7.13;;;;;;;-2.58;100.00;96561.63;5011476;28;105433;-63
2023/04/06 04:17:00;;;;;;;11.13;7.50;;;;;;;-2.73;100.00;96563.28;5013422;28;102090;-63
2023/04/06 04:19:27;;;;;;;11.50;8.00;;;;;;;-2.77;100.00;96570.59;5025816;28;105537;-63
2023/04/06 04:21:57;;;;;;;11.47;7.93;;;;;;;-2.74;100.00;96569.47;5031975;28;104994;-63
2023/04/06 04:24:39;;;;;;;11.87;8.77;;;;;;;-2.71;100.00;96566.50;5030366;28;105283;-63
2023/04/06 04:27:06;;;;;;;10.63;8.93;;;;;;;-2.65;100.00;96560.66;5032831;28;102704;-63
2023/04/06 04:29:34;;;;;;;11.73;8.53;;;;;;;-2.63;100.00;96566.53;5030073;28;101956;-63
2023/04/06 04:32:07;;;;;;;11.20;8.20;;;;;;;-2.62;100.00;96565.53;5034158;27;102044;-63
2023/04/06 04:34:39;;;;;;;11.73;8.30;;;;;;;-2.76;100.00;96564.41;5063483;27;105388;-63
2023/04/06 04:37:09;;;;;;;9.70;8.37;;;;;;;-2.83;100.00;96568.66;5031865;28;102149;-63
2023/04/06 04:39:48;;;;;;;13.40;8.47;;;;;;;-2.88;100.00;96570.13;5014568;28;104954;-63
2023/04/06 04:42:16;;;;;;;11.73;8.50;;;;;;;-2.78;100.00;96570.75;5010923;28;105486;-62
2023/04/06 04:45:14;;;;;;;10.30;8.27;;;;;;;-2.64;100.00;96576.13;5031791;28;101959;-63
2023/04/06 04:47:42;;;;;;;12.27;8.63;;;;;;;-2.47;100.00;96576.91;5031091;28;105634;-63
2023/04/06 04:50:12;;;;;;;9.93;8.60;;;;;;;-2.45;100.00;96573.16;4991835;28;102148;-63
2023/04/06 04:52:44;;;;;;;12.93;9.27;;;;;;;-2.34;100.00;96575.41;4991254;28;105015;-63
2023/04/06 04:55:16;;;;;;;10.67;8.40;;;;;;;-2.27;100.00;96581.56;5030096;28;105243;-62
2023/04/06 04:57:46;;;;;;;14.33;9.17;;;;;;;-2.13;100.00;96575.66;5031207;28;101797;-62
2023/04/06 05:00:14;;;;;;;12.90;9.67;;;;;;;-2.10;100.00;96572.72;4991462;28;105123;-63
2023/04/06 05:02:44;;;;;;;12.13;9.67;;;;;;;-2.12;100.00;96572.09;5006938;28;105126;-63
2023/04/06 05:05:19;;;;;;;11.00;9.40;;;;;;;-2.15;100.00;96563.78;4991454;28;101741;-62
2023/04/06 05:07:47;;;;;;;10.37;8.33;;;;;;;-2.09;100.00;96568.34;4994723;28;104862;-63
2023/04/06 05:10:25;;;;;;;11.10;9.17;;;;;;;-2.10;100.00;96567.53;5029727;28;102008;-63
2023/04/06 05:13:00;;;;;;;10.53;9.43;;;;;;;-2.09;100.00;96574.34;5030594;28;104859;-63
2023/04/06 05:15:28;;;;;;;13.80;9.17;;;;;;;-1.91;100.00;96571.53;5030319;28;103948;-63
2023/04/06 05:18:01;;;;;;;12.70;9.60;;;;;;;-1.75;100.00;96577.47;5029462;28;101970;-63
2023/04/06 05:21:00;;;;;;;11.63;9.60;;;;;;;-1.67;100.00;96580.06;5010393;28;105207;-63
2023/04/06 05:23:46;;;;;;;13.33;10.07;;;;;;;-1.54;100.00;96585.50;5016304;28;103804;-63
2023/04/06 05:26:13;;;;;;;14.43;10.70;;;;;;;-1.37;100.00;96592.25;5030164;28;101933;-63
2023/04/06 05:28:42;;;;;;;23.03;18.17;;;;;;;-1.23;100.00;96588.09;5023052;28;105168;-63
2023/04/06 05:31:10;;;;;;;17.07;13.53;;;;;;;-1.13;100.00;96593.91;5012658;28;105295;-62
2023/04/06 05:33:47;;;;;;;17.23;13.20;;;;;;;-1.11;100.00;96584.13;5010269;28;105234;-63
2023/04/06 05:36:16;;;;;;;20.10;14.00;;;;;;;-0.90;100.00;96585.09;5009271;28;106062;-63
2023/04/06 05:38:50;;;;;;;13.77;12.13;;;;;;;-0.75;100.00;96585.16;5016986;28;102066;-63
2023/04/06 05:41:31;;;;;;;19.23;13.60;;;;;;;-0.65;100.00;96576.09;5029800;28;103819;-63
2023/04/06 05:44:06;;;;;;;20.87;15.00;;;;;;;-0.49;100.00;96582.97;5027688;28;104907;-62
2023/04/06 05:46:34;;;;;;;27.57;17.80;;;;;;;-0.42;100.00;96584.69;5029798;28;101803;-62
2023/04/06 05:49:02;;;;;;;21.33;15.07;;;;;;;-0.39;100.00;96581.72;5017732;28;105292;-62
2023/04/06 05:51:32;;;;;;;18.50;13.50;;;;;;;-0.38;100.00;96577.31;5012369;28;105299;-63
2023/04/06 05:54:27;;;;;;;23.00;16.23;;;;;;;-0.26;100.00;96581.94;5021470;28;102360;-63
2023/04/06 05:56:59;;;;;;;22.27;15.57;;;;;;;-0.03;100.00;96580.03;5029234;28;104986;-63
2023/04/06 05:59:26;;;;;;;17.73;13.43;;;;;;;0.10;100.00;96583.66;5027701;28;102012;-62
2023/04/06 06:01:54;;;;;;;16.30;13.27;;;;;;;0.32;100.00;96579.28;5016639;28;105349;-63
2023/04/06 06:04:29;;;;;;;15.13;11.70;;;;;;;0.45;100.00;96580.25;5008807;28;105149;-62
2023/04/06 06:06:56;;;;;;;12.80;11.00;;;;;;;0.36;100.00;96591.00;5021393;28;101974;-62
2023/04/06 06:09:30;;;;;;;14.60;10.80;;;;;;;0.36;100.00;96585.78;5011662;28;105388;-62
2023/04/06 06:12:05;;;;;;;12.13;10.83;;;;;;;0.58;100.00;96583.03;5010189;28;102841;-62
2023/04/06 06:14:50;;;;;;;13.00;10.47;;;;;;;0.78;100.00;96580.66;5011494;28;101849;-62
2023/04/06 06:17:17;;;;;;;13.23;11.30;;;;;;;0.95;100.00;96584.66;5025597;28;105726;-62
2023/04/06 06:19:47;;;;;;;16.80;11.73;;;;;;;0.71;100.00;96583.19;5028892;28;101882;-64
2023/04/06 06:22:14;;;;;;;13.07;11.20;;;;;;;0.84;100.00;96585.97;5027370;28;105444;-63
2023/04/06 06:24:57;;;;;;;16.13;11.30;;;;;;;1.12;100.00;96578.16;5005065;28;104756;-63
2023/04/06 06:27:25;;;;;;;11.80;10.60;;;;;;;1.44;100.00;96582.88;5008763;28;103400;-63
2023/04/06 06:29:53;;;;;;;12.90;10.40;;;;;;;1.44;100.00;96588.13;5009135;28;105522;-63
2023/04/06 06:32:20;;;;;;;14.97;10.57;;;;;;;1.51;100.00;96584.56;5027297;28;105385;-62
2023/04/06 06:35:04;;;;;;;13.00;10.17;;;;;;;1.73;100.00;96585.31;5008564;28;102005;-63
2023/04/06 06:37:31;;;;;;;12.50;10.90;;;;;;;1.72;100.00;96587.16;5012886;28;103977;-63
2023/04/06 06:40:00;;;;;;;12.93;10.67;;;;;;;1.88;100.00;96583.41;5022492;28;103336;-63
2023/04/06 06:42:27;;;;;;;13.43;9.67;;;;;;;1.98;100.00;96587.31;5027691;28;104876;-63
2023/04/06 06:45:25;;;;;;;11.70;10.13;;;;;;;1.95;100.00;96592.13;5004175;28;103555;-63
2023/04/06 06:47:52;;;;;;;14.03;10.33;;;;;;;2.08;100.00;96590.41;5024100;28;101969;-63
2023/04/06 06:50:19;;;;;;;14.57;10.00;;;;;;;2.36;100.00;96593.00;5021057;28;105068;-63
2023/04/06 06:52:46;;;;;;;14.87;10.40;;;;;;;2.58;100.00;96591.88;5009801;28;105679;-63
2023/04/06 06:55:18;;;;;;;12.63;10.30;;;;;;;2.64;100.00;96596.34;5008188;28;102027;-63
2023/04/06 06:57:46;;;;;;;11.00;8.90;;;;;;;2.71;100.00;96589.28;5008894;28;105204;-63
2023/04/06 07:00:15;;;;;;;11.30;8.67;;;;;;;2.77;100.00;96591.13;5011926;28;105444;-64
2023/04/06 07:02:44;;;;;;;11.53;8.70;;;;;;;3.07;100.00;96595.88;5009047;28;104766;-64
2023/04/06 07:05:11;;;;;;;10.63;8.53;;;;;;;3.15;100.00;96587.81;5041955;27;106042;-64
2023/04/06 07:07:38;;;;;;;11.90;8.67;;;;;;;3.33;100.00;96595.91;5008845;28;101883;-63
2023/04/06 07:10:07;;;;;;;10.20;8.33;;;;;;;3.57;100.00;96599.78;5009531;28;102832;-62
2023/04/06 07:12:39;;;;;;;10.37;9.30;;;;;;;3.39;100.00;96591.69;4989621;28;104236;-63
2023/04/06 07:15:52;;;;;;;11.73;9.70;;;;;;;3.34;100.00;96591.47;5008928;28;102254;-63
2023/04/06 07:18:21;;;;;;;11.43;9.33;;;;;;;3.49;100.00;96590.28;5007859;28;104387;-63
2023/04/06 07:20:48;;;;;;;10.67;9.40;;;;;;;3.49;100.00;96595.53;4991711;28;105467;-63
2023/04/06 07:23:21;;;;;;;16.37;9.30;;;;;;;3.61;100.00;96593.91;5030722;27;102327;-64
2023/04/06 07:25:50;;;;;;;10.40;8.97;;;;;;;3.75;100.00;96589.47;5007846;28;105009;-63
2023/04/06 07:28:19;;;;;;;9.27;8.37;;;;;;;4.13;100.00;96587.81;5008714;28;102163;-62
2023/04/06 07:30:46;;;;;;;9.70;8.70;;;;;;;4.54;100.00;96585.69;5008622;28;104836;-62
2023/04/06 07:33:21;;;;;;;11.30;9.23;;;;;;;4.65;100.00;96577.91;5007798;28;105303;-62
2023/04/06 07:35:49;;;;;;;9.47;8.43;;;;;;;4.68;100.00;96581.97;5042010;27;102214;-62
2023/04/06 07:38:16;;;;;;;10.37;8.00;;;;;;;4.63;100.00;96579.97;5008296;28;105506;-62
2023/04/06 07:40:44;;;;;;;9.27;8.03;;;;;;;4.85;100.00;96581.28;5007743;28;105004;-62
2023/04/06 07:43:15;;;;;;;9.97;8.13;;;;;;;5.06;100.00;96588.88;5008820;28;102882;-62
2023/04/06 07:45:44;;;;;;;16.23;11.67;;;;;;;5.25;100.00;96584.53;5012336;28;104950;-62
2023/04/06 07:48:11;;;;;;;24.90;12.80;;;;;;;5.39;100.00;96586.88;5007289;28;102426;-62
2023/04/06 07:50:39;;;;;;;13.63;8.87;;;;;;;5.24;100.00;96583.72;5040908;27;105247;-62
2023/04/06 07:53:10;;;;;;;10.87;9.43;;;;;;;5.43;100.00;96582.78;4990784;28;105451;-63
2023/04/06 07:55:39;;;;;;;12.20;8.33;;;;;;;5.58;100.00;96583.28;5007929;28;102397;-62
2023/04/06 07:58:06;;;;;;;10.07;9.07;;;;;;;5.72;100.00;96581.38;5007748;28;105733;-62
2023/04/06 08:00:33;;;;;;;12.90;8.60;;;;;;;6.16;100.00;96582.00;5007573;28;105281;-62
2023/04/06 08:03:12;;;;;;;10.43;8.13;;;;;;;6.25;100.00;96571.94;5008902;28;102580;-63
2023/04/06 08:05:39;;;;;;;10.73;8.33;;;;;;;6.37;100.00;96572.84;5010949;28;104974;-62
2023/04/06 08:08:06;;;;;;;9.17;7.67;;;;;;;6.41;100.00;96574.03;5008336;28;102273;-62
2023/04/06 08:10:34;;;;;;;8.33;7.13;;;;;;;6.36;100.00;96571.22;5014673;28;105113;-63
2023/04/06 08:13:23;;;;;;;16.77;7.57;;;;;;;6.57;100.00;96568.16;5007782;28;103956;-62
2023/04/06 08:15:50;;;;;;;9.33;6.83;;;;;;;6.33;100.00;96564.53;5009481;28;103238;-63
2023/04/06 08:18:18;;;;;;;8.43;7.27;;;;;;;6.67;100.00;96565.81;5008301;28;105023;-62
2023/04/06 08:20:45;;;;;;;10.53;7.20;;;;;;;6.75;100.00;96570.78;5007261;28;105175;-62
2023/04/06 08:23:12;;;;;;;7.83;6.90;;;;;;;6.44;100.00;96566.47;5013511;28;102969;-63
2023/04/06 08:25:40;;;;;;;10.67;6.97;;;;;;;6.71;100.00;96565.13;5011677;28;104971;-63
2023/04/06 08:28:06;;;;;;;7.83;6.80;;;;;;;7.33;100.00;96562.06;5010913;28;105588;-64
2023/04/06 08:30:33;;;;;;;8.03;7.07;;;;;;;7.05;99.13;96563.69;5013393;28;105402;-63
2023/04/06 08:33:43;;;;;;;9.47;7.33;;;;;;;7.38;100.00;96558.75;5007889;28;105289;-63
2023/04/06 08:36:13;;;;;;;7.03;6.33;;;;;;;8.00;84.67;96558.13;5008988;28;101989;-64
2023/04/06 08:38:40;;;;;;;8.17;6.60;;;;;;;8.36;78.23;96557.94;5009895;28;105993;-63
2023/04/06 08:41:11;;;;;;;7.20;6.50;;;;;;;8.57;72.39;96554.69;5017473;28;104989;-63
2023/04/06 08:43:45;;;;;;;8.77;6.50;;;;;;;8.72;78.99;96547.06;5013591;28;102175;-63
2023/04/06 08:46:12;;;;;;;7.50;6.70;;;;;;;9.02;73.00;96542.34;5022982;28;102092;-63
2023/04/06 08:48:41;;;;;;;7.37;6.67;;;;;;;9.09;62.61;96551.75;5010616;28;103669;-64
2023/04/06 08:51:09;;;;;;;7.67;6.47;;;;;;;9.37;58.57;96546.44;5024808;28;101967;-63
2023/04/06 08:53:57;;;;;;;7.50;6.70;;;;;;;9.29;60.95;96544.19;5010978;28;103106;-64
2023/04/06 08:56:25;;;;;;;6.70;5.90;;;;;;;9.66;60.55;96545.34;5013773;28;102025;-63
2023/04/06 08:58:53;;;;;;;7.33;6.30;;;;;;;9.77;56.85;96546.31;5013966;28;105076;-63
2023/04/06 09:01:25;;;;;;;6.50;5.90;;;;;;;9.94;54.99;96550.59;5011502;28;102543;-63
2023/04/06 09:03:57;;;;;;;8.03;6.30;;;;;;;9.93;52.79;96548.19;5010340;28;101793;-63
2023/04/06 09:06:28;;;;;;;6.47;5.43;;;;;;;9.71;51.21;96541.97;5010982;28;103773;-63
2023/04/06 09:08:57;;;;;;;6.83;5.63;;;;;;;10.28;52.25;96546.06;5011657;28;102823;-63
2023/04/06 09:11:25;;;;;;;6.03;5.43;;;;;;;10.40;46.37;96544.09;5011731;28;102022;-63
2023/04/06 09:14:02;;;;;;;7.83;5.70;;;;;;;10.28;45.84;96544.22;5013589;28;105192;-63
2023/04/06 09:16:39;;;;;;;6.33;5.33;;;;;;;9.50;42.31;96545.34;5010706;28;101837;-63
2023/04/06 09:19:06;;;;;;;5.70;5.10;;;;;;;10.24;44.43;96537.00;5010494;28;105047;-63
2023/04/06 09:21:34;;;;;;;6.03;5.50;;;;;;;10.59;42.81;96540.94;5009859;28;105283;-63
2023/04/06 09:24:09;;;;;;;5.60;5.00;;;;;;;10.54;41.79;96537.41;5010539;28;101964;-63
2023/04/06 09:26:48;;;;;;;6.20;5.57;;;;;;;10.03;40.59;96535.06;5015051;28;106175;-63
2023/04/06 09:29:26;;;;;;;6.73;5.20;;;;;;;10.25;44.04;96538.59;5017081;28;106263;-62
2023/04/06 09:31:53;;;;;;;5.23;4.73;;;;;;;10.85;42.70;96531.41;5003194;28;101967;-63
2023/04/06 09:34:25;;;;;;;6.80;4.90;;;;;;;11.05;40.21;96531.63;5019477;28;105394;-63
2023/04/06 09:36:53;;;;;;;5.50;5.00;;;;;;;10.53;40.63;96525.16;5013386;28;105237;-63
2023/04/06 09:39:24;;;;;;;6.00;5.27;;;;;;;9.27;40.39;96532.19;5014236;28;105571;-63
2023/04/06 09:41:53;;;;;;;6.00;5.47;;;;;;;9.72;42.78;96532.97;5007044;28;105455;-62
2023/04/06 09:44:21;;;;;;;5.50;5.00;;;;;;;10.34;40.32;96523.81;5012755;28;102504;-63
2023/04/06 09:46:48;;;;;;;5.70;5.10;;;;;;;9.99;39.65;96525.97;5009005;28;104034;-63
2023/04/06 09:49:16;;;;;;;6.33;4.90;;;;;;;10.02;40.59;96528.13;5008804;28;105813;-63
2023/04/06 09:51:47;;;;;;;7.60;5.90;;;;;;;9.87;39.61;96527.91;5012882;28;102264;-63
2023/04/06 09:54:19;;;;;;;6.70;5.13;;;;;;;10.40;40.15;96522.84;5025114;28;102441;-64
2023/04/06 09:56:52;;;;;;;7.83;5.57;;;;;;;11.23;40.70;96520.66;5000287;28;106559;-63
2023/04/06 09:59:26;;;;;;;6.10;5.50;;;;;;;11.02;41.02;96524.16;5019564;28;102248;-63
2023/04/06 10:01:54;;;;;;;6.00;5.30;;;;;;;11.61;40.82;96517.88;5010137;28;105556;-63
2023/04/06 10:04:54;;;;;;;5.80;5.30;;;;;;;11.90;39.70;96513.84;5010003;28;102187;-62
2023/04/06 10:07:22;;;;;;;6.67;5.07;;;;;;;12.18;38.35;96510.81;5002718;28;105257;-63
2023/04/06 10:09:50;;;;;;;7.37;5.60;;;;;;;12.13;37.93;96508.13;5009290;28;105470;-66
2023/04/06 10:12:19;;;;;;;6.40;5.80;;;;;;;11.21;38.12;96506.78;5009608;28;102890;-63
2023/04/06 10:14:49;;;;;;;6.37;5.47;;;;;;;11.78;38.16;96506.00;5009573;28;105719;-63
2023/04/06 10:17:16;;;;;;;7.23;6.30;;;;;;;11.15;36.66;96505.13;5009304;28;105404;-64
2023/04/06 10:19:51;;;;;;;6.70;6.10;;;;;;;11.28;37.86;96507.41;5012809;28;101857;-63
2023/04/06 10:22:25;;;;;;;7.03;6.33;;;;;;;10.82;37.19;96503.44;5008965;28;105599;-63
2023/04/06 10:24:57;;;;;;;7.40;6.70;;;;;;;10.93;40.01;96507.84;5042724;27;101987;-63
2023/04/06 10:27:35;;;;;;;8.13;6.30;;;;;;;10.64;36.98;96509.06;5014944;28;105354;-63
2023/04/06 10:30:04;;;;;;;7.10;6.40;;;;;;;10.95;36.80;96503.06;5010568;28;105190;-63
2023/04/06 10:32:36;;;;;;;7.13;6.53;;;;;;;10.35;36.58;96501.53;5018988;28;102315;-63
2023/04/06 10:35:37;;;;;;;7.13;6.43;;;;;;;10.26;37.72;96493.16;5009424;28;105138;-63
2023/04/06 10:38:05;;;;;;;6.83;6.13;;;;;;;11.48;39.04;96491.59;5043798;27;105138;-64
2023/04/06 10:40:32;;;;;;;8.83;7.90;;;;;;;11.31;37.34;96488.25;5017025;28;101998;-63
2023/04/06 10:43:10;;;;;;;6.90;6.23;;;;;;;12.27;38.89;96486.09;5020198;28;104916;-62
2023/04/06 10:45:38;;;;;;;7.10;6.00;;;;;;;12.45;36.16;96479.53;5016115;28;101810;-63
2023/04/06 10:48:15;;;;;;;7.60;6.00;;;;;;;12.95;34.70;96482.38;5009657;28;104927;-63
2023/04/06 10:50:43;;;;;;;6.53;5.77;;;;;;;12.71;35.49;96482.03;5014211;28;105452;-64
2023/04/06 10:53:23;;;;;;;6.20;5.60;;;;;;;13.33;36.00;96482.78;5043516;27;103691;-63
2023/04/06 10:55:51;;;;;;;6.27;5.53;;;;;;;13.11;36.80;96471.53;5011397;28;102893;-63
2023/04/06 10:58:21;;;;;;;7.27;6.57;;;;;;;12.91;34.44;96476.78;5011748;28;102606;-63
2023/04/06 11:00:49;;;;;;;7.20;6.60;;;;;;;11.30;35.60;96482.16;5016977;27;102024;-63
2023/04/06 11:03:28;;;;;;;8.10;6.20;;;;;;;11.94;35.24;96477.63;5010498;27;102986;-63
2023/04/06 11:05:55;;;;;;;6.93;6.23;;;;;;;11.25;36.27;96476.78;5011476;28;104540;-63
2023/04/06 11:08:27;;;;;;;7.10;6.40;;;;;;;11.63;35.68;96481.13;5009943;28;102571;-63
2023/04/06 11:11:06;;;;;;;8.33;7.37;;;;;;;10.87;36.98;96476.91;5009793;28;101725;-63
2023/04/06 11:13:43;;;;;;;7.47;6.83;;;;;;;10.78;37.25;96472.25;5000219;28;102742;-63
2023/04/06 11:16:14;;;;;;;7.70;7.00;;;;;;;11.16;36.88;96470.28;5009126;28;105462;-63
2023/04/06 11:18:53;;;;;;;6.70;6.10;;;;;;;11.56;37.47;96467.19;5008807;28;105181;-63
2023/04/06 11:21:21;;;;;;;6.23;5.63;;;;;;;11.47;36.81;96461.53;5009090;28;101958;-62
2023/04/06 11:23:50;;;;;;;8.10;6.30;;;;;;;11.47;36.79;96456.19;5010193;28;102925;-62
2023/04/06 11:26:17;;;;;;;6.73;6.10;;;;;;;10.97;36.49;96457.59;5020417;28;105306;-63
2023/04/06 11:28:46;;;;;;;7.00;6.30;;;;;;;11.27;36.49;96450.69;5019553;28;101854;-63
2023/04/06 11:31:14;;;;;;;7.50;6.43;;;;;;;10.88;36.74;96451.91;5008366;28;105474;-63
2023/04/06 11:33:44;;;;;;;7.10;6.40;;;;;;;10.97;37.00;96444.28;5020682;28;101859;-63
2023/04/06 11:36:11;;;;;;;6.90;6.20;;;;;;;11.78;37.38;96446.59;5021358;28;104985;-63
2023/04/06 11:38:40;;;;;;;7.40;6.60;;;;;;;12.28;36.64;96444.25;5028462;28;105584;-63
2023/04/06 11:41:07;;;;;;;7.30;6.60;;;;;;;11.92;35.72;96434.44;5020668;28;102068;-62